createdAt,value
2022-12-05T00:00:33.997Z,19.3
2022-12-05T00:15:32.678Z,19.3
2022-12-05T00:30:31.922Z,19.3
2022-12-05T00:45:32.157Z,19.2
2022-12-05T01:00:32.029Z,19.2
2022-12-05T01:15:32.671Z,19.2
2022-12-05T01:30:32.507Z,19.2
2022-12-05T01:45:31.806Z,19.2
2022-12-05T02:00:33.082Z,19.3
2022-12-05T02:15:32.839Z,19.3
2022-12-05T02:30:32.083Z,19.2
2022-12-05T02:45:32.579Z,19.2
2022-12-05T03:00:32.203Z,19.2
2022-12-05T03:15:32.053Z,19.2
2022-12-05T03:30:32.835Z,19.3
2022-12-05T03:45:32.456Z,19.2
2022-12-05T04:45:32.495Z,19.2
2022-12-05T05:00:32.092Z,19.2
2022-12-05T05:15:32.585Z,19.2
2022-12-05T05:30:32.026Z,19.2
2022-12-05T05:45:32.743Z,19.2
2022-12-05T06:00:34.985Z,19.2
2022-12-05T06:15:32.180Z,19.2
2022-12-05T06:30:32.903Z,19.3
2022-12-05T06:45:32.437Z,19.4
2022-12-05T07:00:36.497Z,19.5
2022-12-05T07:15:32.049Z,19.7
2022-12-05T07:30:36.540Z,19.8
2022-12-05T07:45:32.131Z,20.0
2022-12-05T08:00:34.323Z,20.1
2022-12-05T08:15:33.261Z,20.3
2022-12-05T08:30:33.224Z,20.4
2022-12-05T08:45:32.054Z,20.5
2022-12-05T09:00:34.816Z,20.5
2022-12-05T09:15:31.987Z,20.6
2022-12-05T09:30:33.031Z,20.7
2022-12-05T09:45:32.224Z,20.8
2022-12-05T10:00:34.892Z,20.8
2022-12-05T10:15:32.015Z,20.8
2022-12-05T10:30:32.770Z,20.9
2022-12-05T10:45:31.792Z,20.9
2022-12-05T11:00:35.426Z,20.9
2022-12-05T11:15:34.397Z,20.9
2022-12-05T11:30:33.715Z,20.9
2022-12-05T11:45:33.018Z,21.0
2022-12-05T12:00:37.119Z,20.9
2022-12-05T12:15:32.835Z,21.0
2022-12-05T12:30:33.752Z,21
2022-12-05T12:45:33.008Z,21.1
2022-12-05T13:00:35.032Z,21.1
2022-12-05T13:15:32.853Z,21.1
2022-12-05T13:30:32.142Z,21.2
2022-12-05T13:45:32.644Z,21.2
2022-12-05T14:00:35.392Z,21.2
2022-12-05T14:15:32.391Z,21.2
2022-12-05T14:30:32.504Z,21.3
2022-12-05T14:45:32.501Z,21.3
2022-12-05T15:00:35.778Z,21.3
2022-12-05T15:15:32.878Z,21.3
2022-12-05T15:30:33.562Z,21.3
2022-12-05T15:45:32.830Z,21.3
2022-12-05T16:01:48.764Z,21.3
2022-12-05T20:01:25.677Z,20.4
2022-12-05T21:15:32.221Z,20.1
2022-12-05T21:30:33.896Z,20.1
2022-12-05T21:45:37.628Z,20.1
2022-12-05T22:00:37.182Z,20.0
2022-12-05T22:15:35.003Z,20
2022-12-05T22:30:39.161Z,20
2022-12-05T22:45:32.648Z,20
2022-12-05T23:00:32.687Z,20
2022-12-05T23:15:32.144Z,19.9
2022-12-05T23:30:32.325Z,20.0
2022-12-05T23:45:32.164Z,20
